sensor_id;sensor_type;location;lat;lon;timestamp;P1;durP1;ratioP1;P2;durP2;ratioP2
31262;SDS011;17892;52.080;9.006;2023-05-07T00:00:22;21.40;;;12.02;;
31262;SDS011;17892;52.080;9.006;2023-05-07T00:02:47;19.55;;;11.85;;
31262;SDS011;17892;52.080;9.006;2023-05-07T00:05:13;19.35;;;12.98;;
31262;SDS011;17892;52.080;9.006;2023-05-07T00:07:39;20.95;;;13.35;;
31262;SDS011;17892;52.080;9.006;2023-05-07T00:10:05;22.15;;;14.40;;
31262;SDS011;17892;52.080;9.006;2023-05-07T00:12:32;19.95;;;13.23;;
31262;SDS011;17892;52.080;9.006;2023-05-07T00:14:58;20.50;;;12.57;;
31262;SDS011;17892;52.080;9.006;2023-05-07T00:17:27;19.48;;;12.32;;
31262;SDS011;17892;52.080;9.006;2023-05-07T00:19:52;21.85;;;12.80;;
31262;SDS011;17892;52.080;9.006;2023-05-07T00:22:18;24.10;;;14.30;;
31262;SDS011;17892;52.080;9.006;2023-05-07T00:24:44;23.45;;;14.43;;
31262;SDS011;17892;52.080;9.006;2023-05-07T00:27:09;22.48;;;14.77;;
31262;SDS011;17892;52.080;9.006;2023-05-07T00:29:35;24.17;;;13.93;;
31262;SDS011;17892;52.080;9.006;2023-05-07T00:32:01;23.13;;;15.48;;
31262;SDS011;17892;52.080;9.006;2023-05-07T00:34:27;23.63;;;14.77;;
31262;SDS011;17892;52.080;9.006;2023-05-07T00:36:52;22.85;;;14.52;;
31262;SDS011;17892;52.080;9.006;2023-05-07T00:39:18;21.20;;;14.18;;
31262;SDS011;17892;52.080;9.006;2023-05-07T00:41:44;20.95;;;12.85;;
31262;SDS011;17892;52.080;9.006;2023-05-07T00:44:10;22.80;;;14.23;;
31262;SDS011;17892;52.080;9.006;2023-05-07T00:46:36;23.08;;;13.75;;
31262;SDS011;17892;52.080;9.006;2023-05-07T00:49:03;20.00;;;12.68;;
31262;SDS011;17892;52.080;9.006;2023-05-07T00:51:29;22.45;;;14.10;;
31262;SDS011;17892;52.080;9.006;2023-05-07T00:53:55;24.27;;;14.05;;
31262;SDS011;17892;52.080;9.006;2023-05-07T00:56:21;22.45;;;12.75;;
31262;SDS011;17892;52.080;9.006;2023-05-07T00:58:48;21.95;;;13.35;;
31262;SDS011;17892;52.080;9.006;2023-05-07T01:01:14;20.65;;;12.88;;
31262;SDS011;17892;52.080;9.006;2023-05-07T01:03:43;21.73;;;12.57;;
31262;SDS011;17892;52.080;9.006;2023-05-07T01:06:09;21.95;;;13.63;;
31262;SDS011;17892;52.080;9.006;2023-05-07T01:08:37;20.23;;;13.30;;
31262;SDS011;17892;52.080;9.006;2023-05-07T01:11:04;22.25;;;12.05;;
31262;SDS011;17892;52.080;9.006;2023-05-07T01:13:31;21.05;;;13.40;;
31262;SDS011;17892;52.080;9.006;2023-05-07T01:15:59;20.27;;;11.32;;
31262;SDS011;17892;52.080;9.006;2023-05-07T01:18:25;20.02;;;12.50;;
31262;SDS011;17892;52.080;9.006;2023-05-07T01:20:51;20.48;;;12.80;;
31262;SDS011;17892;52.080;9.006;2023-05-07T01:23:17;20.80;;;13.75;;
31262;SDS011;17892;52.080;9.006;2023-05-07T01:25:50;23.73;;;13.15;;
31262;SDS011;17892;52.080;9.006;2023-05-07T01:28:19;18.58;;;12.27;;
31262;SDS011;17892;52.080;9.006;2023-05-07T01:30:47;18.05;;;11.50;;
31262;SDS011;17892;52.080;9.006;2023-05-07T01:33:20;19.65;;;12.63;;
31262;SDS011;17892;52.080;9.006;2023-05-07T01:35:47;20.13;;;12.68;;
31262;SDS011;17892;52.080;9.006;2023-05-07T01:40:43;21.10;;;12.73;;
31262;SDS011;17892;52.080;9.006;2023-05-07T01:43:09;20.30;;;12.38;;
31262;SDS011;17892;52.080;9.006;2023-05-07T01:45:35;22.27;;;14.45;;
31262;SDS011;17892;52.080;9.006;2023-05-07T01:48:02;23.10;;;13.63;;
31262;SDS011;17892;52.080;9.006;2023-05-07T01:50:29;20.92;;;12.80;;
31262;SDS011;17892;52.080;9.006;2023-05-07T01:52:56;21.27;;;12.43;;
31262;SDS011;17892;52.080;9.006;2023-05-07T01:55:22;22.88;;;13.82;;
31262;SDS011;17892;52.080;9.006;2023-05-07T01:57:48;27.65;;;15.93;;
31262;SDS011;17892;52.080;9.006;2023-05-07T02:00:14;21.83;;;14.70;;
31262;SDS011;17892;52.080;9.006;2023-05-07T02:02:40;19.58;;;12.40;;
31262;SDS011;17892;52.080;9.006;2023-05-07T02:05:06;19.95;;;12.52;;
31262;SDS011;17892;52.080;9.006;2023-05-07T02:07:32;21.15;;;13.52;;
31262;SDS011;17892;52.080;9.006;2023-05-07T02:09:58;20.23;;;12.18;;
31262;SDS011;17892;52.080;9.006;2023-05-07T02:12:23;16.35;;;10.85;;
31262;SDS011;17892;52.080;9.006;2023-05-07T02:14:49;14.50;;;9.65;;
31262;SDS011;17892;52.080;9.006;2023-05-07T02:17:15;21.42;;;12.90;;
31262;SDS011;17892;52.080;9.006;2023-05-07T02:19:40;19.38;;;11.98;;
31262;SDS011;17892;52.080;9.006;2023-05-07T02:22:06;22.98;;;12.85;;
31262;SDS011;17892;52.080;9.006;2023-05-07T02:24:32;21.63;;;12.63;;
31262;SDS011;17892;52.080;9.006;2023-05-07T02:26:58;23.55;;;14.35;;
31262;SDS011;17892;52.080;9.006;2023-05-07T02:29:23;19.15;;;11.95;;
31262;SDS011;17892;52.080;9.006;2023-05-07T02:31:49;18.88;;;11.60;;
31262;SDS011;17892;52.080;9.006;2023-05-07T02:34:16;22.75;;;14.07;;
31262;SDS011;17892;52.080;9.006;2023-05-07T02:36:42;23.13;;;13.40;;
31262;SDS011;17892;52.080;9.006;2023-05-07T02:39:08;18.15;;;11.45;;
31262;SDS011;17892;52.080;9.006;2023-05-07T02:41:34;19.08;;;12.05;;
31262;SDS011;17892;52.080;9.006;2023-05-07T02:43:59;19.70;;;12.98;;
31262;SDS011;17892;52.080;9.006;2023-05-07T02:46:25;27.17;;;16.80;;
31262;SDS011;17892;52.080;9.006;2023-05-07T02:48:51;22.65;;;13.60;;
31262;SDS011;17892;52.080;9.006;2023-05-07T02:51:20;25.90;;;15.57;;
31262;SDS011;17892;52.080;9.006;2023-05-07T02:53:47;23.50;;;14.02;;
31262;SDS011;17892;52.080;9.006;2023-05-07T02:56:13;21.48;;;13.98;;
31262;SDS011;17892;52.080;9.006;2023-05-07T02:58:38;24.88;;;15.40;;
31262;SDS011;17892;52.080;9.006;2023-05-07T03:01:04;26.60;;;15.18;;
31262;SDS011;17892;52.080;9.006;2023-05-07T03:03:31;22.17;;;12.85;;
31262;SDS011;17892;52.080;9.006;2023-05-07T03:05:56;26.83;;;17.38;;
31262;SDS011;17892;52.080;9.006;2023-05-07T03:08:22;28.10;;;16.60;;
31262;SDS011;17892;52.080;9.006;2023-05-07T03:10:49;22.80;;;14.05;;
31262;SDS011;17892;52.080;9.006;2023-05-07T03:13:15;25.63;;;15.55;;
31262;SDS011;17892;52.080;9.006;2023-05-07T03:15:40;26.33;;;15.55;;
31262;SDS011;17892;52.080;9.006;2023-05-07T03:18:06;24.10;;;14.35;;
31262;SDS011;17892;52.080;9.006;2023-05-07T03:20:32;23.02;;;13.65;;
31262;SDS011;17892;52.080;9.006;2023-05-07T03:22:57;22.08;;;13.27;;
31262;SDS011;17892;52.080;9.006;2023-05-07T03:25:23;27.42;;;13.75;;
31262;SDS011;17892;52.080;9.006;2023-05-07T03:27:49;24.40;;;14.70;;
31262;SDS011;17892;52.080;9.006;2023-05-07T03:30:14;26.27;;;15.77;;
31262;SDS011;17892;52.080;9.006;2023-05-07T03:32:40;24.73;;;14.00;;
31262;SDS011;17892;52.080;9.006;2023-05-07T03:35:06;27.48;;;15.18;;
31262;SDS011;17892;52.080;9.006;2023-05-07T03:37:32;26.23;;;16.23;;
31262;SDS011;17892;52.080;9.006;2023-05-07T03:39:58;25.80;;;15.20;;
31262;SDS011;17892;52.080;9.006;2023-05-07T03:42:23;29.80;;;16.58;;
31262;SDS011;17892;52.080;9.006;2023-05-07T03:44:50;27.80;;;16.10;;
31262;SDS011;17892;52.080;9.006;2023-05-07T03:47:16;26.67;;;16.17;;
31262;SDS011;17892;52.080;9.006;2023-05-07T03:49:41;25.85;;;15.27;;
31262;SDS011;17892;52.080;9.006;2023-05-07T03:52:07;24.55;;;14.70;;
31262;SDS011;17892;52.080;9.006;2023-05-07T03:54:32;26.13;;;14.10;;
31262;SDS011;17892;52.080;9.006;2023-05-07T03:56:58;24.85;;;14.70;;
31262;SDS011;17892;52.080;9.006;2023-05-07T03:59:24;25.85;;;14.95;;
31262;SDS011;17892;52.080;9.006;2023-05-07T04:01:49;24.85;;;14.82;;
31262;SDS011;17892;52.080;9.006;2023-05-07T04:04:15;28.88;;;15.57;;
31262;SDS011;17892;52.080;9.006;2023-05-07T04:06:41;27.58;;;15.65;;
31262;SDS011;17892;52.080;9.006;2023-05-07T04:09:07;28.00;;;15.77;;
31262;SDS011;17892;52.080;9.006;2023-05-07T04:11:33;25.75;;;14.32;;
31262;SDS011;17892;52.080;9.006;2023-05-07T04:14:00;24.88;;;14.20;;
31262;SDS011;17892;52.080;9.006;2023-05-07T04:16:26;25.90;;;15.55;;
31262;SDS011;17892;52.080;9.006;2023-05-07T04:18:51;26.65;;;15.25;;
31262;SDS011;17892;52.080;9.006;2023-05-07T04:21:17;26.92;;;15.13;;
31262;SDS011;17892;52.080;9.006;2023-05-07T04:23:45;30.48;;;17.88;;
31262;SDS011;17892;52.080;9.006;2023-05-07T04:26:14;26.33;;;13.95;;
31262;SDS011;17892;52.080;9.006;2023-05-07T04:28:41;25.20;;;14.85;;
31262;SDS011;17892;52.080;9.006;2023-05-07T04:31:07;27.27;;;15.57;;
31262;SDS011;17892;52.080;9.006;2023-05-07T04:33:33;26.90;;;15.43;;
31262;SDS011;17892;52.080;9.006;2023-05-07T04:36:03;25.90;;;14.85;;
31262;SDS011;17892;52.080;9.006;2023-05-07T04:38:29;30.40;;;16.73;;
31262;SDS011;17892;52.080;9.006;2023-05-07T04:40:56;29.38;;;15.07;;
31262;SDS011;17892;52.080;9.006;2023-05-07T04:43:23;27.15;;;15.25;;
31262;SDS011;17892;52.080;9.006;2023-05-07T04:45:52;25.00;;;14.68;;
31262;SDS011;17892;52.080;9.006;2023-05-07T04:48:17;25.50;;;15.20;;
31262;SDS011;17892;52.080;9.006;2023-05-07T04:50:46;25.05;;;13.10;;
31262;SDS011;17892;52.080;9.006;2023-05-07T04:53:13;22.75;;;13.25;;
31262;SDS011;17892;52.080;9.006;2023-05-07T04:55:39;25.17;;;14.35;;
31262;SDS011;17892;52.080;9.006;2023-05-07T04:58:05;21.98;;;12.75;;
31262;SDS011;17892;52.080;9.006;2023-05-07T05:00:30;26.02;;;14.40;;
31262;SDS011;17892;52.080;9.006;2023-05-07T05:02:56;23.77;;;14.25;;
31262;SDS011;17892;52.080;9.006;2023-05-07T05:05:22;20.40;;;12.18;;
31262;SDS011;17892;52.080;9.006;2023-05-07T05:07:47;24.45;;;14.35;;
31262;SDS011;17892;52.080;9.006;2023-05-07T05:10:13;23.90;;;14.48;;
31262;SDS011;17892;52.080;9.006;2023-05-07T05:12:39;24.95;;;14.38;;
31262;SDS011;17892;52.080;9.006;2023-05-07T05:15:05;22.45;;;12.85;;
31262;SDS011;17892;52.080;9.006;2023-05-07T05:17:31;26.63;;;14.82;;
31262;SDS011;17892;52.080;9.006;2023-05-07T05:19:59;25.70;;;15.60;;
31262;SDS011;17892;52.080;9.006;2023-05-07T05:22:25;22.23;;;13.25;;
31262;SDS011;17892;52.080;9.006;2023-05-07T05:24:50;21.67;;;12.68;;
31262;SDS011;17892;52.080;9.006;2023-05-07T05:27:16;21.02;;;11.75;;
31262;SDS011;17892;52.080;9.006;2023-05-07T05:29:42;24.83;;;14.43;;
31262;SDS011;17892;52.080;9.006;2023-05-07T05:32:07;24.30;;;14.82;;
31262;SDS011;17892;52.080;9.006;2023-05-07T05:34:33;20.95;;;13.38;;
31262;SDS011;17892;52.080;9.006;2023-05-07T05:36:59;25.15;;;14.25;;
31262;SDS011;17892;52.080;9.006;2023-05-07T05:39:24;23.13;;;12.95;;
31262;SDS011;17892;52.080;9.006;2023-05-07T05:41:50;22.05;;;12.73;;
31262;SDS011;17892;52.080;9.006;2023-05-07T05:44:16;21.52;;;12.38;;
31262;SDS011;17892;52.080;9.006;2023-05-07T05:46:42;22.17;;;12.55;;
31262;SDS011;17892;52.080;9.006;2023-05-07T05:49:07;19.63;;;11.18;;
31262;SDS011;17892;52.080;9.006;2023-05-07T05:51:33;22.08;;;13.15;;
31262;SDS011;17892;52.080;9.006;2023-05-07T05:53:59;20.85;;;11.82;;
31262;SDS011;17892;52.080;9.006;2023-05-07T05:56:24;21.17;;;12.52;;
31262;SDS011;17892;52.080;9.006;2023-05-07T05:58:50;18.48;;;10.90;;
31262;SDS011;17892;52.080;9.006;2023-05-07T06:01:17;21.95;;;12.02;;
31262;SDS011;17892;52.080;9.006;2023-05-07T06:03:43;21.10;;;12.88;;
31262;SDS011;17892;52.080;9.006;2023-05-07T06:06:09;17.63;;;11.05;;
31262;SDS011;17892;52.080;9.006;2023-05-07T06:08:35;20.33;;;12.43;;
31262;SDS011;17892;52.080;9.006;2023-05-07T06:11:01;22.25;;;12.57;;
31262;SDS011;17892;52.080;9.006;2023-05-07T06:13:27;21.30;;;12.10;;
31262;SDS011;17892;52.080;9.006;2023-05-07T06:15:53;22.00;;;11.95;;
31262;SDS011;17892;52.080;9.006;2023-05-07T06:18:19;19.75;;;11.23;;
31262;SDS011;17892;52.080;9.006;2023-05-07T06:20:44;19.33;;;11.25;;
31262;SDS011;17892;52.080;9.006;2023-05-07T06:23:10;15.55;;;9.80;;
31262;SDS011;17892;52.080;9.006;2023-05-07T06:25:35;18.40;;;10.38;;
31262;SDS011;17892;52.080;9.006;2023-05-07T06:28:01;19.80;;;10.75;;
31262;SDS011;17892;52.080;9.006;2023-05-07T06:30:27;20.15;;;12.13;;
31262;SDS011;17892;52.080;9.006;2023-05-07T06:32:52;18.13;;;10.48;;
31262;SDS011;17892;52.080;9.006;2023-05-07T06:35:18;18.38;;;10.70;;
31262;SDS011;17892;52.080;9.006;2023-05-07T06:37:44;15.80;;;9.05;;
31262;SDS011;17892;52.080;9.006;2023-05-07T06:40:10;16.48;;;9.65;;
31262;SDS011;17892;52.080;9.006;2023-05-07T06:42:36;17.67;;;10.40;;
31262;SDS011;17892;52.080;9.006;2023-05-07T06:45:02;15.25;;;9.13;;
31262;SDS011;17892;52.080;9.006;2023-05-07T06:47:28;13.75;;;8.75;;
31262;SDS011;17892;52.080;9.006;2023-05-07T06:49:54;15.88;;;9.38;;
31262;SDS011;17892;52.080;9.006;2023-05-07T06:52:20;14.65;;;9.63;;
31262;SDS011;17892;52.080;9.006;2023-05-07T06:54:45;14.65;;;9.10;;
31262;SDS011;17892;52.080;9.006;2023-05-07T06:57:11;14.40;;;8.98;;
31262;SDS011;17892;52.080;9.006;2023-05-07T06:59:36;13.68;;;8.15;;
31262;SDS011;17892;52.080;9.006;2023-05-07T07:02:02;16.95;;;10.00;;
31262;SDS011;17892;52.080;9.006;2023-05-07T07:04:28;15.43;;;9.25;;
31262;SDS011;17892;52.080;9.006;2023-05-07T07:06:53;15.20;;;9.35;;
31262;SDS011;17892;52.080;9.006;2023-05-07T07:09:19;14.73;;;8.82;;
31262;SDS011;17892;52.080;9.006;2023-05-07T07:11:45;15.63;;;9.25;;
31262;SDS011;17892;52.080;9.006;2023-05-07T07:14:11;14.40;;;7.97;;
31262;SDS011;17892;52.080;9.006;2023-05-07T07:16:36;14.35;;;8.88;;
31262;SDS011;17892;52.080;9.006;2023-05-07T07:19:02;16.10;;;9.38;;
31262;SDS011;17892;52.080;9.006;2023-05-07T07:21:28;15.50;;;9.15;;
31262;SDS011;17892;52.080;9.006;2023-05-07T07:23:53;13.77;;;8.13;;
31262;SDS011;17892;52.080;9.006;2023-05-07T07:26:19;11.18;;;6.85;;
31262;SDS011;17892;52.080;9.006;2023-05-07T07:28:45;12.20;;;7.13;;
31262;SDS011;17892;52.080;9.006;2023-05-07T07:31:11;11.93;;;7.22;;
31262;SDS011;17892;52.080;9.006;2023-05-07T07:33:37;12.82;;;7.90;;
31262;SDS011;17892;52.080;9.006;2023-05-07T07:36:04;11.75;;;7.28;;
31262;SDS011;17892;52.080;9.006;2023-05-07T07:38:31;11.82;;;7.30;;
31262;SDS011;17892;52.080;9.006;2023-05-07T07:40:56;11.98;;;7.60;;
31262;SDS011;17892;52.080;9.006;2023-05-07T07:43:22;11.48;;;6.75;;
31262;SDS011;17892;52.080;9.006;2023-05-07T07:45:48;8.93;;;5.70;;
31262;SDS011;17892;52.080;9.006;2023-05-07T07:48:14;8.35;;;5.05;;
31262;SDS011;17892;52.080;9.006;2023-05-07T07:50:39;9.80;;;5.63;;
31262;SDS011;17892;52.080;9.006;2023-05-07T07:53:05;8.20;;;5.35;;
31262;SDS011;17892;52.080;9.006;2023-05-07T07:55:31;8.45;;;5.35;;
31262;SDS011;17892;52.080;9.006;2023-05-07T07:57:57;9.95;;;5.55;;
31262;SDS011;17892;52.080;9.006;2023-05-07T08:00:22;11.90;;;6.75;;
31262;SDS011;17892;52.080;9.006;2023-05-07T08:02:48;10.45;;;6.30;;
31262;SDS011;17892;52.080;9.006;2023-05-07T08:05:14;9.38;;;5.43;;
31262;SDS011;17892;52.080;9.006;2023-05-07T08:07:40;9.80;;;6.05;;
31262;SDS011;17892;52.080;9.006;2023-05-07T08:10:06;7.00;;;4.47;;
31262;SDS011;17892;52.080;9.006;2023-05-07T08:12:32;7.72;;;4.50;;
31262;SDS011;17892;52.080;9.006;2023-05-07T08:14:57;8.32;;;5.25;;
31262;SDS011;17892;52.080;9.006;2023-05-07T08:17:23;7.90;;;4.75;;
31262;SDS011;17892;52.080;9.006;2023-05-07T08:19:49;8.75;;;4.95;;
31262;SDS011;17892;52.080;9.006;2023-05-07T08:22:15;10.15;;;5.63;;
31262;SDS011;17892;52.080;9.006;2023-05-07T08:24:42;8.60;;;5.22;;
31262;SDS011;17892;52.080;9.006;2023-05-07T08:27:08;9.30;;;5.80;;
31262;SDS011;17892;52.080;9.006;2023-05-07T08:29:34;8.65;;;4.97;;
31262;SDS011;17892;52.080;9.006;2023-05-07T08:32:00;8.30;;;4.80;;
31262;SDS011;17892;52.080;9.006;2023-05-07T08:34:26;8.25;;;4.80;;
31262;SDS011;17892;52.080;9.006;2023-05-07T08:36:51;8.20;;;5.70;;
31262;SDS011;17892;52.080;9.006;2023-05-07T08:39:17;9.05;;;5.25;;
31262;SDS011;17892;52.080;9.006;2023-05-07T08:41:46;8.18;;;4.57;;
31262;SDS011;17892;52.080;9.006;2023-05-07T08:44:13;7.43;;;4.63;;
31262;SDS011;17892;52.080;9.006;2023-05-07T08:46:39;8.02;;;4.95;;
31262;SDS011;17892;52.080;9.006;2023-05-07T08:49:07;7.75;;;4.95;;
31262;SDS011;17892;52.080;9.006;2023-05-07T08:51:33;6.72;;;4.13;;
31262;SDS011;17892;52.080;9.006;2023-05-07T08:54:00;7.78;;;4.25;;
31262;SDS011;17892;52.080;9.006;2023-05-07T08:56:26;6.07;;;3.60;;
31262;SDS011;17892;52.080;9.006;2023-05-07T08:58:52;6.50;;;4.00;;
31262;SDS011;17892;52.080;9.006;2023-05-07T09:01:21;6.95;;;4.28;;
31262;SDS011;17892;52.080;9.006;2023-05-07T09:03:47;7.13;;;4.60;;
31262;SDS011;17892;52.080;9.006;2023-05-07T09:06:14;6.88;;;4.10;;
31262;SDS011;17892;52.080;9.006;2023-05-07T09:08:43;7.28;;;4.30;;
31262;SDS011;17892;52.080;9.006;2023-05-07T09:11:16;6.97;;;4.45;;
31262;SDS011;17892;52.080;9.006;2023-05-07T09:13:42;8.35;;;4.45;;
31262;SDS011;17892;52.080;9.006;2023-05-07T09:16:11;7.53;;;4.20;;
31262;SDS011;17892;52.080;9.006;2023-05-07T09:18:42;5.93;;;4.18;;
31262;SDS011;17892;52.080;9.006;2023-05-07T09:21:14;6.43;;;4.13;;
31262;SDS011;17892;52.080;9.006;2023-05-07T09:23:41;6.50;;;4.20;;
31262;SDS011;17892;52.080;9.006;2023-05-07T09:26:07;6.70;;;4.20;;
31262;SDS011;17892;52.080;9.006;2023-05-07T09:31:09;6.22;;;3.60;;
31262;SDS011;17892;52.080;9.006;2023-05-07T09:33:36;6.35;;;3.60;;
31262;SDS011;17892;52.080;9.006;2023-05-07T09:36:06;6.75;;;4.10;;
31262;SDS011;17892;52.080;9.006;2023-05-07T09:38:34;6.20;;;4.07;;
31262;SDS011;17892;52.080;9.006;2023-05-07T09:41:05;6.32;;;3.22;;
31262;SDS011;17892;52.080;9.006;2023-05-07T09:43:34;5.93;;;4.00;;
31262;SDS011;17892;52.080;9.006;2023-05-07T09:46:14;5.55;;;3.15;;
31262;SDS011;17892;52.080;9.006;2023-05-07T09:48:42;5.40;;;3.17;;
31262;SDS011;17892;52.080;9.006;2023-05-07T09:53:47;5.85;;;3.55;;
31262;SDS011;17892;52.080;9.006;2023-05-07T09:56:13;4.85;;;2.97;;
31262;SDS011;17892;52.080;9.006;2023-05-07T09:58:42;4.60;;;2.90;;
31262;SDS011;17892;52.080;9.006;2023-05-07T10:01:10;4.88;;;3.10;;
31262;SDS011;17892;52.080;9.006;2023-05-07T10:03:37;5.15;;;3.22;;
31262;SDS011;17892;52.080;9.006;2023-05-07T10:06:06;4.50;;;2.83;;
31262;SDS011;17892;52.080;9.006;2023-05-07T10:08:35;4.72;;;3.10;;
31262;SDS011;17892;52.080;9.006;2023-05-07T10:11:03;4.22;;;3.00;;
31262;SDS011;17892;52.080;9.006;2023-05-07T10:13:30;5.03;;;3.10;;
31262;SDS011;17892;52.080;9.006;2023-05-07T10:15:58;3.95;;;2.67;;
31262;SDS011;17892;52.080;9.006;2023-05-07T10:18:25;4.82;;;2.63;;
31262;SDS011;17892;52.080;9.006;2023-05-07T10:20:54;4.50;;;2.97;;
31262;SDS011;17892;52.080;9.006;2023-05-07T10:23:29;4.30;;;2.55;;
31262;SDS011;17892;52.080;9.006;2023-05-07T10:25:57;4.20;;;2.70;;
31262;SDS011;17892;52.080;9.006;2023-05-07T10:28:29;5.00;;;2.97;;
31262;SDS011;17892;52.080;9.006;2023-05-07T10:34:21;3.63;;;2.40;;
31262;SDS011;17892;52.080;9.006;2023-05-07T10:36:55;5.03;;;2.88;;
31262;SDS011;17892;52.080;9.006;2023-05-07T10:39:21;4.65;;;3.00;;
31262;SDS011;17892;52.080;9.006;2023-05-07T10:41:48;3.65;;;2.30;;
31262;SDS011;17892;52.080;9.006;2023-05-07T10:44:27;3.85;;;2.45;;
31262;SDS011;17892;52.080;9.006;2023-05-07T10:47:10;4.45;;;2.80;;
31262;SDS011;17892;52.080;9.006;2023-05-07T10:52:17;4.13;;;2.42;;
31262;SDS011;17892;52.080;9.006;2023-05-07T11:00:03;4.07;;;2.63;;
31262;SDS011;17892;52.080;9.006;2023-05-07T11:05:25;4.03;;;2.60;;
31262;SDS011;17892;52.080;9.006;2023-05-07T11:07:56;4.55;;;3.10;;
31262;SDS011;17892;52.080;9.006;2023-05-07T11:13:14;3.90;;;2.53;;
31262;SDS011;17892;52.080;9.006;2023-05-07T11:15:47;4.45;;;2.97;;
31262;SDS011;17892;52.080;9.006;2023-05-07T11:18:14;4.05;;;2.42;;
31262;SDS011;17892;52.080;9.006;2023-05-07T11:20:45;4.95;;;2.55;;
31262;SDS011;17892;52.080;9.006;2023-05-07T11:26:02;5.18;;;2.58;;
31262;SDS011;17892;52.080;9.006;2023-05-07T11:28:36;4.10;;;2.55;;
31262;SDS011;17892;52.080;9.006;2023-05-07T11:31:07;4.63;;;2.53;;
31262;SDS011;17892;52.080;9.006;2023-05-07T11:33:33;4.70;;;2.90;;
31262;SDS011;17892;52.080;9.006;2023-05-07T11:36:00;4.25;;;3.00;;
31262;SDS011;17892;52.080;9.006;2023-05-07T11:38:29;4.40;;;2.67;;
31262;SDS011;17892;52.080;9.006;2023-05-07T11:40:56;5.85;;;3.25;;
31262;SDS011;17892;52.080;9.006;2023-05-07T11:43:25;5.00;;;3.13;;
31262;SDS011;17892;52.080;9.006;2023-05-07T11:45:51;4.88;;;3.35;;
31262;SDS011;17892;52.080;9.006;2023-05-07T11:48:17;4.82;;;3.03;;
31262;SDS011;17892;52.080;9.006;2023-05-07T11:50:53;4.32;;;3.13;;
31262;SDS011;17892;52.080;9.006;2023-05-07T11:53:38;4.25;;;2.90;;
31262;SDS011;17892;52.080;9.006;2023-05-07T11:56:09;6.55;;;4.22;;
31262;SDS011;17892;52.080;9.006;2023-05-07T11:58:37;4.85;;;3.35;;
31262;SDS011;17892;52.080;9.006;2023-05-07T12:01:07;5.57;;;3.42;;
31262;SDS011;17892;52.080;9.006;2023-05-07T12:03:35;4.22;;;2.90;;
31262;SDS011;17892;52.080;9.006;2023-05-07T12:06:02;5.03;;;3.47;;
31262;SDS011;17892;52.080;9.006;2023-05-07T12:08:31;5.50;;;3.88;;
31262;SDS011;17892;52.080;9.006;2023-05-07T12:10:56;5.25;;;3.47;;
31262;SDS011;17892;52.080;9.006;2023-05-07T12:13:23;5.28;;;4.10;;
31262;SDS011;17892;52.080;9.006;2023-05-07T12:15:51;5.38;;;3.83;;
31262;SDS011;17892;52.080;9.006;2023-05-07T12:18:18;5.28;;;3.40;;
31262;SDS011;17892;52.080;9.006;2023-05-07T12:20:45;5.68;;;4.15;;
31262;SDS011;17892;52.080;9.006;2023-05-07T12:23:11;5.47;;;3.63;;
31262;SDS011;17892;52.080;9.006;2023-05-07T12:25:38;4.53;;;3.08;;
31262;SDS011;17892;52.080;9.006;2023-05-07T12:28:05;4.75;;;3.53;;
31262;SDS011;17892;52.080;9.006;2023-05-07T12:30:39;5.28;;;4.05;;
31262;SDS011;17892;52.080;9.006;2023-05-07T12:33:05;5.40;;;3.50;;
31262;SDS011;17892;52.080;9.006;2023-05-07T12:35:31;4.30;;;3.30;;
31262;SDS011;17892;52.080;9.006;2023-05-07T12:38:01;5.43;;;3.95;;
31262;SDS011;17892;52.080;9.006;2023-05-07T12:41:02;6.28;;;4.03;;
31262;SDS011;17892;52.080;9.006;2023-05-07T12:43:25;5.68;;;4.20;;
31262;SDS011;17892;52.080;9.006;2023-05-07T12:45:54;4.70;;;3.25;;
31262;SDS011;17892;52.080;9.006;2023-05-07T12:48:22;5.30;;;3.50;;
31262;SDS011;17892;52.080;9.006;2023-05-07T12:50:52;5.15;;;3.80;;
31262;SDS011;17892;52.080;9.006;2023-05-07T12:53:20;5.63;;;3.90;;
31262;SDS011;17892;52.080;9.006;2023-05-07T12:55:50;5.65;;;3.53;;
31262;SDS011;17892;52.080;9.006;2023-05-07T12:58:18;5.32;;;3.90;;
31262;SDS011;17892;52.080;9.006;2023-05-07T13:00:49;5.97;;;4.13;;
31262;SDS011;17892;52.080;9.006;2023-05-07T13:03:37;5.38;;;3.78;;
31262;SDS011;17892;52.080;9.006;2023-05-07T13:06:07;6.32;;;3.47;;
31262;SDS011;17892;52.080;9.006;2023-05-07T13:08:35;5.75;;;4.07;;
31262;SDS011;17892;52.080;9.006;2023-05-07T13:11:06;7.35;;;5.20;;
31262;SDS011;17892;52.080;9.006;2023-05-07T13:13:33;6.53;;;4.53;;
31262;SDS011;17892;52.080;9.006;2023-05-07T13:16:03;5.82;;;4.47;;
31262;SDS011;17892;52.080;9.006;2023-05-07T13:18:31;5.72;;;4.20;;
31262;SDS011;17892;52.080;9.006;2023-05-07T13:20:58;5.70;;;3.75;;
31262;SDS011;17892;52.080;9.006;2023-05-07T13:23:25;5.82;;;4.30;;
31262;SDS011;17892;52.080;9.006;2023-05-07T13:25:51;5.78;;;4.13;;
31262;SDS011;17892;52.080;9.006;2023-05-07T13:28:20;5.32;;;3.58;;
31262;SDS011;17892;52.080;9.006;2023-05-07T13:30:46;6.60;;;4.15;;
31262;SDS011;17892;52.080;9.006;2023-05-07T13:33:12;5.82;;;4.30;;
31262;SDS011;17892;52.080;9.006;2023-05-07T13:35:38;6.22;;;4.40;;
31262;SDS011;17892;52.080;9.006;2023-05-07T13:38:04;7.30;;;4.70;;
31262;SDS011;17892;52.080;9.006;2023-05-07T13:40:30;7.25;;;4.78;;
31262;SDS011;17892;52.080;9.006;2023-05-07T13:42:59;6.50;;;4.40;;
31262;SDS011;17892;52.080;9.006;2023-05-07T13:45:27;6.65;;;4.80;;
31262;SDS011;17892;52.080;9.006;2023-05-07T13:47:54;7.90;;;5.00;;
31262;SDS011;17892;52.080;9.006;2023-05-07T13:50:20;8.52;;;5.47;;
31262;SDS011;17892;52.080;9.006;2023-05-07T13:52:46;8.35;;;6.18;;
31262;SDS011;17892;52.080;9.006;2023-05-07T13:55:16;7.15;;;4.57;;
31262;SDS011;17892;52.080;9.006;2023-05-07T13:57:43;6.07;;;4.07;;
31262;SDS011;17892;52.080;9.006;2023-05-07T14:00:09;8.10;;;5.55;;
31262;SDS011;17892;52.080;9.006;2023-05-07T14:02:35;6.85;;;4.97;;
31262;SDS011;17892;52.080;9.006;2023-05-07T14:05:01;8.05;;;5.43;;
31262;SDS011;17892;52.080;9.006;2023-05-07T14:07:27;6.18;;;4.32;;
31262;SDS011;17892;52.080;9.006;2023-05-07T14:09:53;7.00;;;4.90;;
31262;SDS011;17892;52.080;9.006;2023-05-07T14:12:20;6.88;;;4.93;;
31262;SDS011;17892;52.080;9.006;2023-05-07T14:14:45;8.25;;;5.63;;
31262;SDS011;17892;52.080;9.006;2023-05-07T14:17:11;8.38;;;6.30;;
31262;SDS011;17892;52.080;9.006;2023-05-07T14:19:37;7.10;;;5.57;;
31262;SDS011;17892;52.080;9.006;2023-05-07T14:22:03;6.18;;;4.65;;
31262;SDS011;17892;52.080;9.006;2023-05-07T14:24:29;6.30;;;4.68;;
31262;SDS011;17892;52.080;9.006;2023-05-07T14:26:55;8.73;;;6.30;;
31262;SDS011;17892;52.080;9.006;2023-05-07T14:29:21;9.68;;;6.55;;
31262;SDS011;17892;52.080;9.006;2023-05-07T14:31:48;11.68;;;7.03;;
31262;SDS011;17892;52.080;9.006;2023-05-07T14:34:14;8.30;;;6.13;;
31262;SDS011;17892;52.080;9.006;2023-05-07T14:36:40;7.82;;;5.80;;
31262;SDS011;17892;52.080;9.006;2023-05-07T14:39:05;8.18;;;6.38;;
31262;SDS011;17892;52.080;9.006;2023-05-07T14:41:31;7.93;;;5.78;;
31262;SDS011;17892;52.080;9.006;2023-05-07T14:43:58;8.00;;;6.50;;
31262;SDS011;17892;52.080;9.006;2023-05-07T14:46:23;8.75;;;6.45;;
31262;SDS011;17892;52.080;9.006;2023-05-07T14:48:49;9.00;;;6.45;;
31262;SDS011;17892;52.080;9.006;2023-05-07T14:51:15;8.20;;;6.05;;
31262;SDS011;17892;52.080;9.006;2023-05-07T14:53:41;10.40;;;6.68;;
31262;SDS011;17892;52.080;9.006;2023-05-07T14:56:07;9.07;;;6.03;;
31262;SDS011;17892;52.080;9.006;2023-05-07T14:58:33;8.88;;;7.22;;